Tierra Amarilla, New Mexico
Current Conditions -  °F | °C
As of 12:35 AM on Wednesday 22 Oct 2014 (Local Time) from KPSO Reporting Station
Broken Clouds Broken Clouds  
Wind Chill: 43°   Ceiling: 8000
Heat Index: 43°   Visibility: 7mi
Dew Point: 43°   Wind: 0mph
Humidity: 99%   Direction: NA
Pressure: 30.21"   Gusts: NA
Location:  36.7°N, 106.55°W
Report Text: KPSO 220635Z AUTO 00000KT 7SM SCT044 SCT050 BKN080 06/06 A3021 RMK AO2 LTG DSNT NW T00630061
Loading
Personal Weather Stations






























Interactive Weather Map
Tropical Storm Tracking
New forecast layout! Learn more

10-Day Weather Forecast

Advertisements
Track Severe Weather on mobile